Time;durP1;ratioP1;P1;durP2;ratioP2;P2;SDS_P1;SDS_P2;PMS_P1;PMS_P2;Temp;Humidity;BMP_temperature;BMP_pressure;BME280_temperature;BME280_humidity;BME280_pressure;Samples;Min_cycle;Max_cycle;Signal;HPM_P1;HPM_P2
2022/05/22 00:02:47;;;;;;;5.45;2.10;;;;;;;;;;6201242;23;20176;-86
2022/05/22 00:05:57;;;;;;;7.22;2.17;;;;;;;;;;6183276;23;20248;-88
2022/05/22 00:09:02;;;;;;;4.97;2.10;;;;;;;;;;6184787;23;20172;-86
2022/05/22 00:12:09;;;;;;;3.95;2.22;;;;;;;;;;6170347;23;20239;-87
2022/05/22 00:15:15;;;;;;;3.88;2.20;;;;;;;;;;6170026;23;20200;-86
2022/05/22 00:18:20;;;;;;;4.40;2.30;;;;;;;;;;6164667;23;20180;-87
2022/05/22 00:21:27;;;;;;;5.55;2.00;;;;;;;;;;6167262;23;20180;-87
2022/05/22 00:24:33;;;;;;;4.15;2.13;;;;;;;;;;6167549;23;20184;-87
2022/05/22 00:27:39;;;;;;;4.65;2.20;;;;;;;;;;6164549;23;20176;-88
2022/05/22 00:30:44;;;;;;;3.65;2.03;;;;;;;;;;6161811;23;20176;-88
2022/05/22 00:33:51;;;;;;;4.28;2.00;;;;;;;;;;6162448;23;20604;-87
2022/05/22 00:36:58;;;;;;;3.67;2.03;;;;;;;;;;6161880;23;20404;-88
2022/05/22 00:40:05;;;;;;;11.52;2.28;;;;;;;;;;6163018;23;20559;-87
2022/05/22 00:43:25;;;;;;;5.15;2.05;;;;;;;;;;6168352;23;20172;-87
2022/05/22 00:46:30;;;;;;;3.53;1.77;;;;;;;;;;6167061;23;20172;-87
2022/05/22 00:49:38;;;;;;;4.00;2.00;;;;;;;;;;6167511;23;20172;-87
2022/05/22 00:52:47;;;;;;;7.35;2.10;;;;;;;;;;6165216;23;20187;-87
2022/05/22 00:55:53;;;;;;;6.40;2.13;;;;;;;;;;6162126;23;20176;-87
2022/05/22 00:58:59;;;;;;;4.72;2.10;;;;;;;;;;6162852;23;20518;-87
2022/05/22 01:02:05;;;;;;;4.07;1.88;;;;;;;;;;6163087;23;20176;-87
2022/05/22 01:05:13;;;;;;;9.75;2.10;;;;;;;;;;6162603;23;20172;-87
2022/05/22 01:08:20;;;;;;;13.30;2.40;;;;;;;;;;6164884;23;20184;-87
2022/05/22 01:11:27;;;;;;;4.75;2.30;;;;;;;;;;6189922;23;20243;-88
2022/05/22 01:14:34;;;;;;;9.15;2.35;;;;;;;;;;6179182;23;20254;-87
2022/05/22 01:17:43;;;;;;;9.02;2.40;;;;;;;;;;6189685;23;20171;-87
2022/05/22 01:20:51;;;;;;;3.63;2.28;;;;;;;;;;6193656;23;20164;-86
2022/05/22 01:24:02;;;;;;;3.85;2.33;;;;;;;;;;6193748;23;20160;-87
2022/05/22 01:27:13;;;;;;;5.05;2.47;;;;;;;;;;6194509;23;20171;-87
2022/05/22 01:30:29;;;;;;;5.70;2.22;;;;;;;;;;6194220;23;20167;-86
2022/05/22 01:33:46;;;;;;;4.90;2.60;;;;;;;;;;6192884;23;20187;-87
2022/05/22 01:36:52;;;;;;;7.50;2.55;;;;;;;;;;6193524;23;20205;-87
2022/05/22 01:40:01;;;;;;;5.53;2.20;;;;;;;;;;6192778;23;20215;-87
2022/05/22 01:43:10;;;;;;;3.30;2.30;;;;;;;;;;6191776;23;20172;-86
2022/05/22 01:46:16;;;;;;;6.05;2.20;;;;;;;;;;6178015;23;20280;-86
2022/05/22 01:49:39;;;;;;;6.57;2.15;;;;;;;;;;6176299;23;20172;-86
2022/05/22 01:52:55;;;;;;;8.20;2.40;;;;;;;;;;6191576;23;20414;-86
2022/05/22 01:56:02;;;;;;;6.88;2.38;;;;;;;;;;6177076;23;20200;-86
2022/05/22 01:59:11;;;;;;;4.13;2.30;;;;;;;;;;6173442;23;20168;-86
2022/05/22 02:02:37;;;;;;;3.55;2.20;;;;;;;;;;6173471;23;20176;-87
2022/05/22 02:05:43;;;;;;;5.10;2.60;;;;;;;;;;6173293;23;20261;-87
2022/05/22 02:08:48;;;;;;;4.53;2.30;;;;;;;;;;6173280;23;20299;-87
2022/05/22 02:11:55;;;;;;;4.97;2.40;;;;;;;;;;6172712;23;20191;-88
2022/05/22 02:15:01;;;;;;;7.60;2.47;;;;;;;;;;6172198;23;20195;-87
2022/05/22 02:18:06;;;;;;;6.72;2.63;;;;;;;;;;6172846;23;20499;-87
2022/05/22 02:21:13;;;;;;;5.97;2.70;;;;;;;;;;6172879;23;20180;-87
2022/05/22 02:24:18;;;;;;;5.43;2.53;;;;;;;;;;6172640;23;20408;-87
2022/05/22 02:27:37;;;;;;;7.93;2.47;;;;;;;;;;6172722;23;20168;-87
2022/05/22 02:30:43;;;;;;;5.85;2.42;;;;;;;;;;6172351;23;20405;-87
2022/05/22 02:33:50;;;;;;;4.25;2.30;;;;;;;;;;6172777;23;20176;-86
2022/05/22 02:36:56;;;;;;;5.15;2.65;;;;;;;;;;6172122;23;20176;-87
2022/05/22 02:40:01;;;;;;;4.05;1.98;;;;;;;;;;6172794;23;20206;-87
2022/05/22 02:43:31;;;;;;;10.07;2.80;;;;;;;;;;6172876;23;20178;-87
2022/05/22 02:46:37;;;;;;;7.07;2.80;;;;;;;;;;6155314;23;20171;-87
2022/05/22 02:49:45;;;;;;;3.28;2.15;;;;;;;;;;6172703;23;20175;-87
2022/05/22 02:52:51;;;;;;;4.07;2.33;;;;;;;;;;6172299;23;20172;-87
2022/05/22 02:56:07;;;;;;;6.45;2.30;;;;;;;;;;6171598;23;20459;-87
2022/05/22 02:59:24;;;;;;;7.18;2.35;;;;;;;;;;6172400;23;20425;-87
2022/05/22 03:02:49;;;;;;;6.88;2.90;;;;;;;;;;6172390;23;20219;-87
2022/05/22 03:09:23;;;;;;;5.68;2.70;;;;;;;;;;6205407;23;20256;-87
2022/05/22 03:12:30;;;;;;;4.32;2.63;;;;;;;;;;6188339;23;20291;-87
2022/05/22 03:15:40;;;;;;;8.48;2.83;;;;;;;;;;6187625;23;20195;-86
2022/05/22 03:18:46;;;;;;;4.35;2.22;;;;;;;;;;6188051;23;20171;-86
2022/05/22 03:21:57;;;;;;;6.20;2.88;;;;;;;;;;6191730;23;20199;-86
2022/05/22 03:25:02;;;;;;;6.80;2.90;;;;;;;;;;6174344;23;20251;-87
2022/05/22 03:28:09;;;;;;;3.60;2.33;;;;;;;;;;6174290;23;20420;-88
2022/05/22 03:31:17;;;;;;;4.53;2.67;;;;;;;;;;6174370;23;20180;-88
2022/05/22 03:34:24;;;;;;;6.72;3.30;;;;;;;;;;6174219;23;20171;-88
2022/05/22 03:37:33;;;;;;;5.05;2.72;;;;;;;;;;6174689;23;20456;-88
2022/05/22 03:40:42;;;;;;;3.88;2.85;;;;;;;;;;6179282;23;20524;-88
2022/05/22 03:43:48;;;;;;;6.28;2.70;;;;;;;;;;6174587;23;20175;-87
2022/05/22 03:47:11;;;;;;;5.07;2.55;;;;;;;;;;6180002;23;20172;-88
2022/05/22 03:50:30;;;;;;;7.38;2.78;;;;;;;;;;6183171;23;20249;-86
2022/05/22 03:53:37;;;;;;;10.40;2.58;;;;;;;;;;6176554;23;20188;-88
2022/05/22 03:56:45;;;;;;;5.75;2.75;;;;;;;;;;6174123;23;20223;-88
2022/05/22 04:00:06;;;;;;;4.70;2.70;;;;;;;;;;6174824;23;20191;-88
2022/05/22 04:03:22;;;;;;;4.90;2.92;;;;;;;;;;6192112;23;20172;-88
2022/05/22 04:06:33;;;;;;;3.88;2.80;;;;;;;;;;6173210;23;20204;-87
2022/05/22 04:09:38;;;;;;;5.10;2.95;;;;;;;;;;6174440;23;20176;-88
2022/05/22 04:12:50;;;;;;;6.55;3.00;;;;;;;;;;6174540;23;20168;-87
2022/05/22 04:15:56;;;;;;;3.67;2.63;;;;;;;;;;6173067;23;20319;-87
2022/05/22 04:19:03;;;;;;;6.78;2.90;;;;;;;;;;6173187;23;20413;-87
2022/05/22 04:22:09;;;;;;;5.45;2.75;;;;;;;;;;6173873;23;20179;-86
2022/05/22 04:25:21;;;;;;;6.20;2.75;;;;;;;;;;6173218;23;20410;-87
2022/05/22 04:28:27;;;;;;;6.18;2.70;;;;;;;;;;6174182;23;20248;-87
2022/05/22 04:31:42;;;;;;;7.25;2.70;;;;;;;;;;6173960;23;20192;-88
2022/05/22 04:35:01;;;;;;;7.40;2.72;;;;;;;;;;6173938;23;20556;-88
2022/05/22 04:38:09;;;;;;;4.68;2.50;;;;;;;;;;6177225;23;20192;-87
2022/05/22 04:41:18;;;;;;;5.03;2.65;;;;;;;;;;6174861;23;20536;-87
2022/05/22 04:44:24;;;;;;;5.95;2.60;;;;;;;;;;6174934;23;20203;-88
2022/05/22 04:47:43;;;;;;;6.60;2.55;;;;;;;;;;6188523;23;20155;-87
2022/05/22 04:51:00;;;;;;;4.57;2.58;;;;;;;;;;6195393;23;20201;-87
2022/05/22 04:54:22;;;;;;;5.53;2.55;;;;;;;;;;6195335;23;20156;-87
2022/05/22 04:57:48;;;;;;;4.70;2.72;;;;;;;;;;6213218;23;20672;-88
2022/05/22 05:00:55;;;;;;;7.57;2.70;;;;;;;;;;6195371;23;20196;-88
2022/05/22 05:04:02;;;;;;;6.72;2.42;;;;;;;;;;6195211;23;20172;-88
2022/05/22 05:07:14;;;;;;;5.45;2.47;;;;;;;;;;6189845;23;20207;-88
2022/05/22 05:10:27;;;;;;;7.15;2.75;;;;;;;;;;6198518;23;20194;-87
2022/05/22 05:13:38;;;;;;;6.60;2.63;;;;;;;;;;6196031;23;20409;-87
2022/05/22 05:16:43;;;;;;;8.23;2.55;;;;;;;;;;6189007;23;20188;-88
2022/05/22 05:19:53;;;;;;;7.38;3.15;;;;;;;;;;6193727;23;20201;-86
2022/05/22 05:23:03;;;;;;;4.38;2.90;;;;;;;;;;6195008;23;20175;-86
2022/05/22 05:26:17;;;;;;;4.47;2.70;;;;;;;;;;6194359;23;20156;-86
2022/05/22 05:29:24;;;;;;;5.75;2.90;;;;;;;;;;6195243;23;20152;-87
2022/05/22 05:32:31;;;;;;;10.13;2.50;;;;;;;;;;6179453;23;20184;-87
2022/05/22 05:35:38;;;;;;;6.82;2.80;;;;;;;;;;6173550;23;20270;-87
2022/05/22 05:38:53;;;;;;;8.27;2.95;;;;;;;;;;6174070;23;20528;-87
2022/05/22 05:42:12;;;;;;;7.93;2.58;;;;;;;;;;6173548;23;20180;-87
2022/05/22 05:45:21;;;;;;;18.23;3.55;;;;;;;;;;6173039;23;20172;-87
2022/05/22 05:48:36;;;;;;;7.80;3.05;;;;;;;;;;6173353;23;20287;-88
2022/05/22 05:51:42;;;;;;;5.18;2.80;;;;;;;;;;6173729;23;20559;-86
2022/05/22 05:54:49;;;;;;;2.65;2.30;;;;;;;;;;6173215;23;20178;-87
2022/05/22 05:58:15;;;;;;;6.45;2.50;;;;;;;;;;6161715;23;20199;-88
2022/05/22 06:01:21;;;;;;;6.30;2.72;;;;;;;;;;6173007;23;20715;-87
2022/05/22 06:04:39;;;;;;;7.20;2.40;;;;;;;;;;6173153;23;20195;-86
2022/05/22 06:07:49;;;;;;;5.53;2.50;;;;;;;;;;6173344;23;20168;-87
2022/05/22 06:10:58;;;;;;;4.68;3.03;;;;;;;;;;6172853;23;20191;-88
2022/05/22 06:14:16;;;;;;;7.80;3.67;;;;;;;;;;6173429;23;20175;-87
2022/05/22 06:17:29;;;;;;;3.97;2.80;;;;;;;;;;6172937;23;20176;-87
2022/05/22 06:20:34;;;;;;;5.32;2.63;;;;;;;;;;6172562;23;20180;-87
2022/05/22 06:23:52;;;;;;;5.05;2.72;;;;;;;;;;6177712;23;20179;-87
2022/05/22 06:27:19;;;;;;;8.73;2.78;;;;;;;;;;6196969;23;20214;-86
2022/05/22 06:30:37;;;;;;;6.30;2.35;;;;;;;;;;6172989;23;20516;-89
2022/05/22 06:34:22;;;;;;;8.07;2.13;;;;;;;;;;6071337;23;20203;-86
2022/05/22 06:37:49;;;;;;;7.30;2.58;;;;;;;;;;6072062;23;20227;-87
2022/05/22 06:41:13;;;;;;;6.43;2.40;;;;;;;;;;6190390;23;20176;-87
2022/05/22 06:44:29;;;;;;;5.90;2.33;;;;;;;;;;6173073;23;20184;-86
2022/05/22 06:47:53;;;;;;;3.83;1.85;;;;;;;;;;6195465;23;20215;-88
2022/05/22 06:51:19;;;;;;;4.10;2.00;;;;;;;;;;6161404;23;20238;-88
2022/05/22 06:54:30;;;;;;;4.78;2.13;;;;;;;;;;6191314;23;20175;-88
2022/05/22 06:58:02;;;;;;;7.78;2.20;;;;;;;;;;6175788;23;20234;-87
2022/05/22 07:01:29;;;;;;;5.35;1.90;;;;;;;;;;6190579;23;20216;-88
2022/05/22 07:04:53;;;;;;;4.60;2.10;;;;;;;;;;6191009;23;20172;-88
2022/05/22 07:08:13;;;;;;;8.13;2.20;;;;;;;;;;6178253;23;20171;-87
2022/05/22 07:11:39;;;;;;;8.05;1.80;;;;;;;;;;6173098;23;20184;-88
2022/05/22 07:15:12;;;;;;;6.72;2.03;;;;;;;;;;6175100;23;20187;-88
2022/05/22 07:18:28;;;;;;;7.03;1.80;;;;;;;;;;6190667;23;20172;-89
2022/05/22 07:21:52;;;;;;;5.82;1.90;;;;;;;;;;6174494;23;20176;-88
2022/05/22 07:25:20;;;;;;;3.35;1.50;;;;;;;;;;6173737;23;20222;-88
2022/05/22 07:29:01;;;;;;;5.47;1.88;;;;;;;;;;6172732;23;20591;-88
2022/05/22 07:32:26;;;;;;;4.95;1.60;;;;;;;;;;6190508;23;20176;-88
2022/05/22 07:36:03;;;;;;;5.95;1.70;;;;;;;;;;6190376;23;20227;-88
2022/05/22 07:39:38;;;;;;;4.40;1.60;;;;;;;;;;6116145;23;20234;-89
2022/05/22 07:42:54;;;;;;;4.85;1.70;;;;;;;;;;6173038;23;20172;-89
2022/05/22 07:46:18;;;;;;;5.85;1.60;;;;;;;;;;6172253;23;20180;-89
2022/05/22 07:53:23;;;;;;;3.33;1.10;;;;;;;;;;6172838;23;20188;-90
2022/05/22 07:57:04;;;;;;;3.03;0.90;;;;;;;;;;6190557;23;20242;-90
2022/05/22 08:00:19;;;;;;;4.05;1.38;;;;;;;;;;6173528;23;20183;-88
2022/05/22 08:03:30;;;;;;;4.82;1.30;;;;;;;;;;6173219;23;20410;-89
2022/05/22 08:10:08;;;;;;;5.13;1.13;;;;;;;;;;6174621;23;20194;-89
2022/05/22 08:13:14;;;;;;;2.20;1.17;;;;;;;;;;6174891;23;20179;-89
2022/05/22 08:16:20;;;;;;;10.15;2.33;;;;;;;;;;6173989;23;20214;-89
2022/05/22 08:19:38;;;;;;;3.20;1.05;;;;;;;;;;6174791;23;20175;-89
2022/05/22 08:23:07;;;;;;;2.65;1.10;;;;;;;;;;6193356;23;20190;-89
2022/05/22 08:26:34;;;;;;;2.45;1.30;;;;;;;;;;6191689;23;20519;-88
2022/05/22 08:29:42;;;;;;;3.42;1.10;;;;;;;;;;6174117;23;20171;-88
2022/05/22 08:32:48;;;;;;;4.22;1.40;;;;;;;;;;6176165;23;20214;-87
2022/05/22 08:35:53;;;;;;;8.90;1.48;;;;;;;;;;6161479;23;20234;-88
2022/05/22 08:38:59;;;;;;;4.25;1.67;;;;;;;;;;6180807;23;20175;-88
2022/05/22 08:42:09;;;;;;;4.82;1.10;;;;;;;;;;6176004;23;20194;-89
2022/05/22 08:45:17;;;;;;;4.00;1.25;;;;;;;;;;6177628;23;20555;-87
2022/05/22 08:48:31;;;;;;;2.78;1.20;;;;;;;;;;6179365;23;20276;-88
2022/05/22 08:51:40;;;;;;;3.50;1.00;;;;;;;;;;6182282;23;20171;-88
2022/05/22 08:54:50;;;;;;;3.42;1.10;;;;;;;;;;6176050;23;20493;-89
2022/05/22 09:05:00;;;;;;;5.18;0.98;;;;;;;;;;6200958;23;20203;-90
2022/05/22 09:08:20;;;;;;;3.60;1.00;;;;;;;;;;6179464;23;20218;-87
2022/05/22 09:11:29;;;;;;;4.50;0.90;;;;;;;;;;6181883;23;20271;-87
2022/05/22 09:14:39;;;;;;;5.00;1.15;;;;;;;;;;6178039;23;20217;-88
2022/05/22 09:17:49;;;;;;;3.25;1.05;;;;;;;;;;6180281;23;20194;-88
2022/05/22 09:20:56;;;;;;;4.07;0.98;;;;;;;;;;6176922;23;20171;-87
2022/05/22 09:24:04;;;;;;;4.05;1.30;;;;;;;;;;6193454;23;20210;-88
2022/05/22 09:27:10;;;;;;;3.83;1.05;;;;;;;;;;6175651;23;20171;-89
2022/05/22 09:30:19;;;;;;;4.93;1.08;;;;;;;;;;6158425;23;20183;-88
2022/05/22 09:33:33;;;;;;;3.95;1.02;;;;;;;;;;6176538;23;20171;-86
2022/05/22 09:36:44;;;;;;;2.78;1.00;;;;;;;;;;6177134;23;20433;-87
2022/05/22 09:40:08;;;;;;;4.85;1.30;;;;;;;;;;6179932;23;20287;-85
2022/05/22 09:43:29;;;;;;;2.05;0.95;;;;;;;;;;6168424;23;20175;-86
2022/05/22 09:46:40;;;;;;;2.83;1.10;;;;;;;;;;6176838;23;20163;-86
2022/05/22 09:49:53;;;;;;;2.78;0.90;;;;;;;;;;6174732;23;20175;-87
2022/05/22 09:53:00;;;;;;;3.17;1.08;;;;;;;;;;6190208;23;20208;-87
2022/05/22 09:56:10;;;;;;;2.00;1.00;;;;;;;;;;6194107;23;20152;-87
2022/05/22 09:59:32;;;;;;;4.38;1.08;;;;;;;;;;6193840;23;20151;-87
2022/05/22 10:02:43;;;;;;;4.03;1.10;;;;;;;;;;6194290;23;20201;-87
2022/05/22 10:06:02;;;;;;;3.03;1.20;;;;;;;;;;6212253;23;20194;-87
2022/05/22 10:09:15;;;;;;;3.60;1.10;;;;;;;;;;6194564;23;20184;-86
2022/05/22 10:12:25;;;;;;;5.05;1.20;;;;;;;;;;6192611;23;20226;-86
2022/05/22 10:15:43;;;;;;;2.80;1.02;;;;;;;;;;6191655;23;20159;-86
2022/05/22 10:19:00;;;;;;;7.30;3.20;;;;;;;;;;6177131;23;20174;-86
2022/05/22 10:22:12;;;;;;;5.25;1.40;;;;;;;;;;6176243;23;20175;-87
2022/05/22 10:25:25;;;;;;;3.75;1.33;;;;;;;;;;6175890;23;20174;-87
2022/05/22 10:28:33;;;;;;;3.17;1.30;;;;;;;;;;6174922;23;20171;-87
2022/05/22 10:31:41;;;;;;;11.20;1.20;;;;;;;;;;6174031;23;20226;-87
2022/05/22 10:34:55;;;;;;;2.88;1.00;;;;;;;;;;6183642;23;20191;-87
2022/05/22 10:38:03;;;;;;;2.92;1.20;;;;;;;;;;6174656;23;20563;-86
2022/05/22 10:44:39;;;;;;;4.30;0.80;;;;;;;;;;6174799;23;20236;-87
2022/05/22 10:47:45;;;;;;;4.18;1.00;;;;;;;;;;6177083;23;20183;-87
2022/05/22 10:50:57;;;;;;;6.22;1.30;;;;;;;;;;6175534;23;20527;-86
2022/05/22 10:54:03;;;;;;;2.95;1.10;;;;;;;;;;6175479;23;20171;-88
2022/05/22 10:57:11;;;;;;;3.95;1.05;;;;;;;;;;6178075;23;20198;-87
2022/05/22 11:00:19;;;;;;;3.97;1.17;;;;;;;;;;6177789;23;20179;-88
2022/05/22 11:03:27;;;;;;;3.08;1.10;;;;;;;;;;6176999;23;20199;-88
2022/05/22 11:06:36;;;;;;;6.47;1.15;;;;;;;;;;6178628;23;20207;-89
2022/05/22 11:09:47;;;;;;;4.30;1.10;;;;;;;;;;6178874;23;20179;-89
2022/05/22 11:13:03;;;;;;;5.05;1.30;;;;;;;;;;6180513;23;20250;-87
2022/05/22 11:16:13;;;;;;;4.25;1.00;;;;;;;;;;6176434;23;20179;-88
2022/05/22 11:19:22;;;;;;;1.98;0.80;;;;;;;;;;6179713;23;20240;-88
2022/05/22 11:22:34;;;;;;;3.83;0.90;;;;;;;;;;6178704;23;20171;-87
2022/05/22 11:25:47;;;;;;;3.95;1.13;;;;;;;;;;6178193;23;20170;-88
2022/05/22 11:29:05;;;;;;;4.18;1.42;;;;;;;;;;6177327;23;20523;-87
2022/05/22 11:32:17;;;;;;;6.20;1.20;;;;;;;;;;6174832;23;20171;-87
2022/05/22 11:35:34;;;;;;;4.97;1.17;;;;;;;;;;6173834;23;20249;-89
2022/05/22 11:38:59;;;;;;;3.25;1.30;;;;;;;;;;6159577;23;20244;-87
2022/05/22 11:42:14;;;;;;;3.80;1.23;;;;;;;;;;6178596;23;20171;-87
2022/05/22 11:45:24;;;;;;;4.18;1.30;;;;;;;;;;6194724;23;20179;-88
2022/05/22 11:48:39;;;;;;;3.28;1.30;;;;;;;;;;6177427;23;20235;-86
2022/05/22 11:51:52;;;;;;;5.88;1.67;;;;;;;;;;6178063;23;20468;-88
2022/05/22 11:55:01;;;;;;;3.25;1.17;;;;;;;;;;6175869;23;20210;-88
2022/05/22 11:58:13;;;;;;;5.03;1.00;;;;;;;;;;6176781;23;20198;-88
2022/05/22 12:01:21;;;;;;;5.50;1.60;;;;;;;;;;6177794;23;20295;-88
2022/05/22 12:04:36;;;;;;;3.30;1.10;;;;;;;;;;6175390;23;20207;-88
2022/05/22 12:08:00;;;;;;;4.88;1.45;;;;;;;;;;6177349;23;20171;-88
2022/05/22 12:11:08;;;;;;;4.15;1.08;;;;;;;;;;6194737;23;20529;-88
2022/05/22 12:14:20;;;;;;;4.30;1.20;;;;;;;;;;6175564;23;20410;-88
2022/05/22 12:17:31;;;;;;;3.30;1.13;;;;;;;;;;6185204;23;20195;-88
2022/05/22 12:20:40;;;;;;;4.43;1.20;;;;;;;;;;6176440;23;20275;-87
2022/05/22 12:23:49;;;;;;;2.50;1.15;;;;;;;;;;6178941;23;20258;-87
2022/05/22 12:26:55;;;;;;;4.63;1.38;;;;;;;;;;6177174;23;20481;-87
2022/05/22 12:30:06;;;;;;;2.88;0.90;;;;;;;;;;6175724;23;20175;-88
2022/05/22 12:33:12;;;;;;;2.78;1.08;;;;;;;;;;6176067;23;20221;-89
2022/05/22 12:36:21;;;;;;;3.45;1.42;;;;;;;;;;6176012;23;20202;-88
2022/05/22 12:39:28;;;;;;;2.05;1.08;;;;;;;;;;6175316;23;20213;-88
2022/05/22 12:42:36;;;;;;;7.35;1.02;;;;;;;;;;6174733;23;20202;-87
2022/05/22 12:45:43;;;;;;;2.10;1.00;;;;;;;;;;6179342;23;20183;-88
2022/05/22 12:48:48;;;;;;;4.35;1.10;;;;;;;;;;6175557;23;20168;-88
2022/05/22 12:52:01;;;;;;;3.45;0.90;;;;;;;;;;6176217;23;20173;-88
2022/05/22 12:55:09;;;;;;;3.53;1.00;;;;;;;;;;6194738;23;20155;-87
2022/05/22 12:58:30;;;;;;;3.40;1.20;;;;;;;;;;6193032;23;20247;-87
2022/05/22 13:01:45;;;;;;;2.60;1.00;;;;;;;;;;6195508;23;20195;-88
2022/05/22 13:04:54;;;;;;;5.25;1.42;;;;;;;;;;6194796;23;20361;-87
2022/05/22 13:08:01;;;;;;;2.53;0.98;;;;;;;;;;6194941;23;20187;-87
2022/05/22 13:11:10;;;;;;;2.63;0.90;;;;;;;;;;6187371;23;20234;-89
2022/05/22 13:14:23;;;;;;;2.72;1.10;;;;;;;;;;6181321;23;20653;-86
2022/05/22 13:17:37;;;;;;;4.72;0.80;;;;;;;;;;6193858;23;20191;-89
2022/05/22 13:20:49;;;;;;;4.88;1.30;;;;;;;;;;6192139;23;20175;-89
2022/05/22 13:24:03;;;;;;;3.05;1.20;;;;;;;;;;6175756;23;20174;-89
2022/05/22 13:27:23;;;;;;;2.97;1.17;;;;;;;;;;6178587;23;20175;-88
2022/05/22 13:30:30;;;;;;;4.28;1.40;;;;;;;;;;6175876;23;20187;-88
2022/05/22 13:33:41;;;;;;;4.13;1.40;;;;;;;;;;6176270;23;20466;-88
2022/05/22 13:36:50;;;;;;;5.75;1.40;;;;;;;;;;6176155;23;20263;-88
2022/05/22 13:43:54;;;;;;;4.45;1.48;;;;;;;;;;6174370;23;20399;-87
2022/05/22 13:47:40;;;;;;;2.65;1.15;;;;;;;;;;6175618;23;20175;-88
2022/05/22 13:54:21;;;;;;;2.63;1.15;;;;;;;;;;6175465;23;20228;-86
2022/05/22 13:57:31;;;;;;;3.28;1.17;;;;;;;;;;6174914;23;20238;-87
2022/05/22 14:00:41;;;;;;;4.05;1.45;;;;;;;;;;6180825;23;20238;-87
2022/05/22 14:04:09;;;;;;;1.85;1.10;;;;;;;;;;6175251;23;20238;-88
2022/05/22 14:07:22;;;;;;;3.63;1.08;;;;;;;;;;6174833;23;20696;-88
2022/05/22 14:10:34;;;;;;;1.50;1.10;;;;;;;;;;6174961;23;20303;-87
2022/05/22 14:13:54;;;;;;;3.78;1.10;;;;;;;;;;6176693;23;20175;-86
2022/05/22 14:17:02;;;;;;;6.38;1.38;;;;;;;;;;6195155;23;20171;-87
2022/05/22 14:20:09;;;;;;;3.03;1.20;;;;;;;;;;6177284;23;20171;-88
2022/05/22 14:23:24;;;;;;;5.10;1.30;;;;;;;;;;6180657;23;20258;-87
2022/05/22 14:26:30;;;;;;;2.33;1.25;;;;;;;;;;6181092;23;20174;-87
2022/05/22 14:29:37;;;;;;;4.43;1.25;;;;;;;;;;6195639;23;20170;-88
2022/05/22 14:32:43;;;;;;;6.05;1.10;;;;;;;;;;6177396;23;20183;-89
2022/05/22 14:35:51;;;;;;;3.70;1.15;;;;;;;;;;6196445;23;20235;-88
2022/05/22 14:39:01;;;;;;;2.72;1.20;;;;;;;;;;6181202;23;20443;-89
2022/05/22 14:42:18;;;;;;;2.42;0.85;;;;;;;;;;6159520;23;20455;-87
2022/05/22 14:45:33;;;;;;;6.05;1.23;;;;;;;;;;6178079;23;20182;-86
2022/05/22 14:48:51;;;;;;;4.78;1.58;;;;;;;;;;6176112;23;20214;-88
2022/05/22 14:52:00;;;;;;;3.80;0.93;;;;;;;;;;6177468;23;20170;-88
2022/05/22 14:55:11;;;;;;;3.78;1.00;;;;;;;;;;6176303;23;20202;-88
2022/05/22 14:58:22;;;;;;;2.80;1.20;;;;;;;;;;6176492;23;20199;-88
2022/05/22 15:01:31;;;;;;;5.53;1.15;;;;;;;;;;6176544;23;20245;-88
2022/05/22 15:04:37;;;;;;;5.38;1.30;;;;;;;;;;6177179;23;20224;-88
2022/05/22 15:07:51;;;;;;;4.57;1.40;;;;;;;;;;6176491;23;20283;-87
2022/05/22 15:10:59;;;;;;;6.35;1.88;;;;;;;;;;6207336;23;20199;-86
2022/05/22 15:14:09;;;;;;;5.35;1.30;;;;;;;;;;6184824;23;20172;-87
2022/05/22 15:17:17;;;;;;;6.80;1.30;;;;;;;;;;6190737;23;20175;-88
2022/05/22 15:20:33;;;;;;;6.07;1.23;;;;;;;;;;6188303;23;20176;-88
2022/05/22 15:27:06;;;;;;;3.92;1.08;;;;;;;;;;6165333;23;20226;-88
2022/05/22 15:30:16;;;;;;;3.55;1.33;;;;;;;;;;6178189;23;20171;-86
2022/05/22 15:33:34;;;;;;;4.00;1.58;;;;;;;;;;6178593;23;20256;-87
2022/05/22 15:36:42;;;;;;;4.85;1.38;;;;;;;;;;6177486;23;20215;-87
2022/05/22 15:39:47;;;;;;;5.05;1.20;;;;;;;;;;6194976;23;20405;-87
2022/05/22 15:43:09;;;;;;;4.25;1.30;;;;;;;;;;6184101;23;20235;-88
2022/05/22 15:46:24;;;;;;;7.22;4.00;;;;;;;;;;6198224;23;20250;-87
2022/05/22 15:52:55;;;;;;;3.58;1.33;;;;;;;;;;6179063;23;20509;-88
2022/05/22 15:56:05;;;;;;;3.03;1.20;;;;;;;;;;6178513;23;20434;-88
2022/05/22 15:59:14;;;;;;;4.47;1.50;;;;;;;;;;6179184;23;20210;-89
2022/05/22 16:02:22;;;;;;;4.85;1.38;;;;;;;;;;6179288;23;20479;-88
2022/05/22 16:05:29;;;;;;;2.97;1.30;;;;;;;;;;6180263;23;20223;-88
2022/05/22 16:08:34;;;;;;;4.18;1.30;;;;;;;;;;6181661;23;20404;-87
2022/05/22 16:11:42;;;;;;;5.03;1.35;;;;;;;;;;6180916;23;20194;-87
2022/05/22 16:14:51;;;;;;;6.05;1.48;;;;;;;;;;6178017;23;20175;-87
2022/05/22 16:17:59;;;;;;;5.15;1.25;;;;;;;;;;6178265;23;20195;-87
2022/05/22 16:21:06;;;;;;;6.57;1.20;;;;;;;;;;6177569;23;20179;-87
2022/05/22 16:24:15;;;;;;;4.70;1.50;;;;;;;;;;6179273;23;20209;-86
2022/05/22 16:27:23;;;;;;;4.75;1.38;;;;;;;;;;6177596;23;20183;-87
2022/05/22 16:30:32;;;;;;;3.60;1.35;;;;;;;;;;6177712;23;20175;-87
2022/05/22 16:33:38;;;;;;;5.28;1.27;;;;;;;;;;6180147;23;20172;-87
2022/05/22 16:36:46;;;;;;;4.82;1.58;;;;;;;;;;6203451;23;20172;-85
2022/05/22 16:40:01;;;;;;;5.28;1.40;;;;;;;;;;6177827;23;20200;-86
2022/05/22 16:43:08;;;;;;;4.80;1.23;;;;;;;;;;6178839;23;20279;-87
2022/05/22 16:46:25;;;;;;;5.68;1.80;;;;;;;;;;6181018;23;20180;-88
2022/05/22 16:53:09;;;;;;;5.25;1.33;;;;;;;;;;6194547;23;20160;-85
2022/05/22 16:56:18;;;;;;;3.95;1.25;;;;;;;;;;6177810;23;20199;-88
2022/05/22 16:59:26;;;;;;;4.63;1.50;;;;;;;;;;6195075;23;20215;-85
2022/05/22 17:02:36;;;;;;;4.80;1.40;;;;;;;;;;6195072;23;20163;-85
2022/05/22 17:05:43;;;;;;;4.68;1.63;;;;;;;;;;6194332;23;20221;-85
2022/05/22 17:08:51;;;;;;;7.93;1.52;;;;;;;;;;6195536;23;20159;-86
2022/05/22 17:11:57;;;;;;;6.10;1.30;;;;;;;;;;6177703;23;20175;-87
2022/05/22 17:15:04;;;;;;;6.70;1.60;;;;;;;;;;6194473;23;20167;-86
2022/05/22 17:18:17;;;;;;;7.22;1.63;;;;;;;;;;6178216;23;20270;-87
2022/05/22 17:21:22;;;;;;;4.70;1.23;;;;;;;;;;6174214;23;20179;-85
2022/05/22 17:24:39;;;;;;;2.92;1.30;;;;;;;;;;6180257;23;20234;-86
2022/05/22 17:28:11;;;;;;;2.15;1.17;;;;;;;;;;6175888;23;20223;-85
2022/05/22 17:31:16;;;;;;;4.63;1.40;;;;;;;;;;6175618;23;20172;-87
2022/05/22 17:34:24;;;;;;;2.95;1.13;;;;;;;;;;6176353;23;20303;-85
2022/05/22 17:37:31;;;;;;;6.72;1.50;;;;;;;;;;6176788;23;20313;-85
2022/05/22 17:40:37;;;;;;;5.85;1.35;;;;;;;;;;6174462;23;20172;-86
2022/05/22 17:43:43;;;;;;;10.85;2.55;;;;;;;;;;6192659;23;20528;-86
2022/05/22 17:46:48;;;;;;;6.78;1.30;;;;;;;;;;6174590;23;20220;-87
2022/05/22 17:49:54;;;;;;;5.38;1.40;;;;;;;;;;6174885;23;20191;-87
2022/05/22 17:53:01;;;;;;;4.88;1.67;;;;;;;;;;6174529;23;20171;-86
2022/05/22 17:56:06;;;;;;;3.42;1.40;;;;;;;;;;6173646;23;20254;-84
2022/05/22 17:59:12;;;;;;;4.82;1.33;;;;;;;;;;6175518;23;20194;-85
2022/05/22 18:02:43;;;;;;;5.15;1.65;;;;;;;;;;6195729;23;20168;-84
2022/05/22 18:05:49;;;;;;;6.90;1.85;;;;;;;;;;6173297;23;20227;-86
2022/05/22 18:08:57;;;;;;;7.68;2.25;;;;;;;;;;6177318;23;20184;-86
2022/05/22 18:18:47;;;;;;;5.40;2.08;;;;;;;;;;6173910;23;20211;-86
2022/05/22 18:21:54;;;;;;;6.80;2.20;;;;;;;;;;6193440;23;20299;-86
2022/05/22 18:28:26;;;;;;;3.67;1.85;;;;;;;;;;6175476;23;20216;-86
2022/05/22 18:31:32;;;;;;;7.63;2.08;;;;;;;;;;6175101;23;20204;-84
2022/05/22 18:34:38;;;;;;;6.93;2.00;;;;;;;;;;6174895;23;20175;-86
2022/05/22 18:37:47;;;;;;;5.60;1.60;;;;;;;;;;6174915;23;20174;-85
2022/05/22 18:40:52;;;;;;;9.70;3.85;;;;;;;;;;6174184;23;20415;-85
2022/05/22 18:44:00;;;;;;;5.50;2.20;;;;;;;;;;6173942;23;20215;-86
2022/05/22 18:47:06;;;;;;;6.53;2.05;;;;;;;;;;6173935;23;20291;-87
2022/05/22 18:50:12;;;;;;;5.07;1.80;;;;;;;;;;6173631;23;20171;-85
2022/05/22 18:53:18;;;;;;;3.58;1.80;;;;;;;;;;6192872;23;20241;-86
2022/05/22 18:56:29;;;;;;;7.10;2.08;;;;;;;;;;6190556;23;20440;-85
2022/05/22 18:59:34;;;;;;;3.15;1.40;;;;;;;;;;6174116;23;20215;-85
2022/05/22 19:02:40;;;;;;;3.30;1.73;;;;;;;;;;6173647;23;20528;-85
2022/05/22 19:05:46;;;;;;;6.18;1.77;;;;;;;;;;6192897;23;20180;-85
2022/05/22 19:08:53;;;;;;;3.63;1.60;;;;;;;;;;6175517;23;20184;-85
2022/05/22 19:12:02;;;;;;;4.47;1.60;;;;;;;;;;6174907;23;20246;-86
2022/05/22 19:15:12;;;;;;;2.70;1.50;;;;;;;;;;6175238;23;20171;-86
2022/05/22 19:18:19;;;;;;;7.20;1.80;;;;;;;;;;6192929;23;20183;-85
2022/05/22 19:21:25;;;;;;;10.82;2.75;;;;;;;;;;6173884;23;20410;-85
2022/05/22 19:24:31;;;;;;;5.80;2.22;;;;;;;;;;6174300;23;20176;-84
2022/05/22 19:27:38;;;;;;;7.88;2.30;;;;;;;;;;6173877;23;20175;-84
2022/05/22 19:30:47;;;;;;;4.65;1.80;;;;;;;;;;6173198;23;20176;-85
2022/05/22 19:33:53;;;;;;;4.22;2.00;;;;;;;;;;6173888;23;20192;-84
2022/05/22 19:37:00;;;;;;;5.85;2.22;;;;;;;;;;6181887;23;20246;-84
2022/05/22 19:40:10;;;;;;;4.95;2.60;;;;;;;;;;6202388;23;20200;-86
2022/05/22 19:46:41;;;;;;;4.85;2.20;;;;;;;;;;6173894;23;20219;-85
2022/05/22 19:49:48;;;;;;;5.35;2.13;;;;;;;;;;6173864;23;20176;-85
2022/05/22 19:52:54;;;;;;;6.15;2.72;;;;;;;;;;6173138;23;20172;-86
2022/05/22 19:59:24;;;;;;;5.07;2.80;;;;;;;;;;6183026;23;20200;-82
2022/05/22 20:02:32;;;;;;;11.63;2.88;;;;;;;;;;6206512;23;20233;-84
2022/05/22 20:05:40;;;;;;;5.07;2.55;;;;;;;;;;6186722;23;20175;-85